sensor_id;sensor_type;location;lat;lon;timestamp;noise_LAeq;noise_LA_min;noise_LA_max;noise_LA01;noise_LA95
43512;Laerm;34054;52.100;5.116;2024-03-22T00:00:09;33.47;31.26;41.41;;
43512;Laerm;34054;52.100;5.116;2024-03-22T00:00:42;33.41;31.09;36.89;;
43512;Laerm;34054;52.100;5.116;2024-03-22T00:01:14;33.41;31.10;35.70;;
43512;Laerm;34054;52.100;5.116;2024-03-22T00:01:46;37.02;31.41;58.12;;
43512;Laerm;34054;52.100;5.116;2024-03-22T00:02:18;33.39;31.07;38.93;;
43512;Laerm;34054;52.100;5.116;2024-03-22T00:02:50;33.47;31.59;35.69;;
43512;Laerm;34054;52.100;5.116;2024-03-22T00:03:22;33.41;30.87;37.58;;
43512;Laerm;34054;52.100;5.116;2024-03-22T00:03:54;33.41;31.08;38.65;;
43512;Laerm;34054;52.100;5.116;2024-03-22T00:04:25;34.05;31.03;46.23;;
43512;Laerm;34054;52.100;5.116;2024-03-22T00:04:58;35.89;31.31;53.16;;
43512;Laerm;34054;52.100;5.116;2024-03-22T00:05:31;34.04;31.20;39.16;;
43512;Laerm;34054;52.100;5.116;2024-03-22T00:06:03;33.58;31.67;37.10;;
43512;Laerm;34054;52.100;5.116;2024-03-22T00:06:34;33.43;31.33;35.72;;
43512;Laerm;34054;52.100;5.116;2024-03-22T00:07:06;33.62;31.69;35.93;;
43512;Laerm;34054;52.100;5.116;2024-03-22T00:07:37;33.48;31.42;35.55;;
43512;Laerm;34054;52.100;5.116;2024-03-22T00:08:09;33.37;31.19;37.57;;
43512;Laerm;34054;52.100;5.116;2024-03-22T00:08:41;33.38;31.24;35.72;;
43512;Laerm;34054;52.100;5.116;2024-03-22T00:09:14;33.50;31.31;36.31;;
43512;Laerm;34054;52.100;5.116;2024-03-22T00:09:46;34.90;31.21;50.97;;
43512;Laerm;34054;52.100;5.116;2024-03-22T00:10:17;34.23;31.63;52.93;;
43512;Laerm;34054;52.100;5.116;2024-03-22T00:10:49;33.91;31.20;50.17;;
43512;Laerm;34054;52.100;5.116;2024-03-22T00:11:20;33.42;31.06;35.55;;
43512;Laerm;34054;52.100;5.116;2024-03-22T00:11:52;33.49;31.06;38.43;;
43512;Laerm;34054;52.100;5.116;2024-03-22T00:12:23;33.39;31.33;35.65;;
43512;Laerm;34054;52.100;5.116;2024-03-22T00:12:56;33.33;30.91;35.47;;
43512;Laerm;34054;52.100;5.116;2024-03-22T00:13:27;33.43;31.08;36.73;;
43512;Laerm;34054;52.100;5.116;2024-03-22T00:13:59;33.42;31.13;36.91;;
43512;Laerm;34054;52.100;5.116;2024-03-22T00:14:31;33.46;31.10;42.79;;
43512;Laerm;34054;52.100;5.116;2024-03-22T00:15:03;35.55;31.15;52.52;;
43512;Laerm;34054;52.100;5.116;2024-03-22T00:15:34;33.95;31.52;43.06;;
43512;Laerm;34054;52.100;5.116;2024-03-22T00:16:06;33.61;30.90;43.44;;
43512;Laerm;34054;52.100;5.116;2024-03-22T00:16:39;33.39;30.86;35.40;;
43512;Laerm;34054;52.100;5.116;2024-03-22T00:17:10;33.61;31.26;39.33;;
43512;Laerm;34054;52.100;5.116;2024-03-22T00:17:44;33.67;31.54;38.11;;
43512;Laerm;34054;52.100;5.116;2024-03-22T00:18:16;34.71;31.36;49.78;;
43512;Laerm;34054;52.100;5.116;2024-03-22T00:18:47;33.56;31.68;35.73;;
43512;Laerm;34054;52.100;5.116;2024-03-22T00:19:19;33.81;31.75;42.31;;
43512;Laerm;34054;52.100;5.116;2024-03-22T00:19:51;34.13;31.24;41.55;;
43512;Laerm;34054;52.100;5.116;2024-03-22T00:20:24;33.53;31.15;35.36;;
43512;Laerm;34054;52.100;5.116;2024-03-22T00:20:56;33.63;31.59;35.97;;
43512;Laerm;34054;52.100;5.116;2024-03-22T00:21:28;34.00;31.35;46.45;;
43512;Laerm;34054;52.100;5.116;2024-03-22T00:22:00;33.39;31.37;37.96;;
43512;Laerm;34054;52.100;5.116;2024-03-22T00:22:32;33.79;31.25;44.22;;
43512;Laerm;34054;52.100;5.116;2024-03-22T00:23:04;33.42;31.35;37.09;;
43512;Laerm;34054;52.100;5.116;2024-03-22T00:23:36;33.63;31.14;42.93;;
43512;Laerm;34054;52.100;5.116;2024-03-22T00:24:08;33.57;31.10;43.80;;
43512;Laerm;34054;52.100;5.116;2024-03-22T00:24:40;33.45;31.10;36.06;;
43512;Laerm;34054;52.100;5.116;2024-03-22T00:25:11;33.97;30.86;45.06;;
43512;Laerm;34054;52.100;5.116;2024-03-22T00:25:43;33.95;31.50;42.63;;
43512;Laerm;34054;52.100;5.116;2024-03-22T00:26:14;33.97;31.00;40.82;;
43512;Laerm;34054;52.100;5.116;2024-03-22T00:26:46;33.58;31.33;36.12;;
43512;Laerm;34054;52.100;5.116;2024-03-22T00:27:19;33.42;30.91;35.82;;
43512;Laerm;34054;52.100;5.116;2024-03-22T00:27:50;33.49;31.13;35.96;;
43512;Laerm;34054;52.100;5.116;2024-03-22T00:28:22;33.36;31.08;36.13;;
43512;Laerm;34054;52.100;5.116;2024-03-22T00:28:53;33.56;31.10;36.31;;
43512;Laerm;34054;52.100;5.116;2024-03-22T00:29:25;33.80;31.50;35.92;;
43512;Laerm;34054;52.100;5.116;2024-03-22T00:29:57;33.53;31.52;35.36;;
43512;Laerm;34054;52.100;5.116;2024-03-22T00:30:29;33.68;31.12;41.28;;
43512;Laerm;34054;52.100;5.116;2024-03-22T00:31:01;33.52;31.44;36.44;;
43512;Laerm;34054;52.100;5.116;2024-03-22T00:31:33;33.69;31.16;41.58;;
43512;Laerm;34054;52.100;5.116;2024-03-22T00:32:05;33.51;31.40;36.57;;
43512;Laerm;34054;52.100;5.116;2024-03-22T00:32:38;33.52;30.85;36.17;;
43512;Laerm;34054;52.100;5.116;2024-03-22T00:33:10;33.65;31.42;35.55;;
43512;Laerm;34054;52.100;5.116;2024-03-22T00:33:41;33.43;31.21;35.66;;
43512;Laerm;34054;52.100;5.116;2024-03-22T00:34:13;33.50;31.11;35.57;;
43512;Laerm;34054;52.100;5.116;2024-03-22T00:34:45;33.52;31.04;36.24;;
43512;Laerm;34054;52.100;5.116;2024-03-22T00:35:17;33.58;31.17;38.47;;
43512;Laerm;34054;52.100;5.116;2024-03-22T00:35:50;33.43;31.18;36.74;;
43512;Laerm;34054;52.100;5.116;2024-03-22T00:36:21;33.53;31.28;35.97;;
43512;Laerm;34054;52.100;5.116;2024-03-22T00:36:53;33.52;31.14;35.68;;
43512;Laerm;34054;52.100;5.116;2024-03-22T00:37:25;33.46;31.09;35.53;;
43512;Laerm;34054;52.100;5.116;2024-03-22T00:37:56;33.63;31.20;36.61;;
43512;Laerm;34054;52.100;5.116;2024-03-22T00:38:29;33.58;31.24;39.83;;
43512;Laerm;34054;52.100;5.116;2024-03-22T00:39:01;33.57;30.97;38.71;;
43512;Laerm;34054;52.100;5.116;2024-03-22T00:39:32;33.66;31.11;42.73;;
43512;Laerm;34054;52.100;5.116;2024-03-22T00:40:05;33.60;31.20;39.15;;
43512;Laerm;34054;52.100;5.116;2024-03-22T00:40:37;33.50;31.40;36.45;;
43512;Laerm;34054;52.100;5.116;2024-03-22T00:41:09;34.37;31.59;48.30;;
43512;Laerm;34054;52.100;5.116;2024-03-22T00:41:40;36.97;31.65;56.56;;
43512;Laerm;34054;52.100;5.116;2024-03-22T00:42:13;35.88;31.18;55.09;;
43512;Laerm;34054;52.100;5.116;2024-03-22T00:42:44;33.50;31.13;36.50;;
43512;Laerm;34054;52.100;5.116;2024-03-22T00:43:16;33.58;31.50;37.16;;
43512;Laerm;34054;52.100;5.116;2024-03-22T00:43:47;33.60;31.03;40.14;;
43512;Laerm;34054;52.100;5.116;2024-03-22T00:44:19;33.61;31.02;36.48;;
43512;Laerm;34054;52.100;5.116;2024-03-22T00:44:50;33.54;31.22;36.09;;
43512;Laerm;34054;52.100;5.116;2024-03-22T00:45:22;34.05;31.46;39.69;;
43512;Laerm;34054;52.100;5.116;2024-03-22T00:45:54;33.57;30.86;36.22;;
43512;Laerm;34054;52.100;5.116;2024-03-22T00:46:26;33.82;31.21;43.56;;
43512;Laerm;34054;52.100;5.116;2024-03-22T00:46:57;33.60;31.28;36.37;;
43512;Laerm;34054;52.100;5.116;2024-03-22T00:47:29;33.82;31.71;36.59;;
43512;Laerm;34054;52.100;5.116;2024-03-22T00:48:01;34.07;31.10;46.92;;
43512;Laerm;34054;52.100;5.116;2024-03-22T00:48:32;33.82;31.09;37.07;;
43512;Laerm;34054;52.100;5.116;2024-03-22T00:49:04;33.65;31.29;36.68;;
43512;Laerm;34054;52.100;5.116;2024-03-22T00:49:36;33.53;31.37;35.99;;
43512;Laerm;34054;52.100;5.116;2024-03-22T00:50:08;33.60;31.27;35.90;;
43512;Laerm;34054;52.100;5.116;2024-03-22T00:50:40;34.17;31.33;48.14;;
43512;Laerm;34054;52.100;5.116;2024-03-22T00:51:13;34.09;31.77;42.29;;
43512;Laerm;34054;52.100;5.116;2024-03-22T00:51:44;33.70;31.19;36.83;;
43512;Laerm;34054;52.100;5.116;2024-03-22T00:52:17;33.72;31.49;36.85;;
43512;Laerm;34054;52.100;5.116;2024-03-22T00:52:50;34.40;31.66;40.83;;
43512;Laerm;34054;52.100;5.116;2024-03-22T00:53:22;33.83;31.42;43.22;;
43512;Laerm;34054;52.100;5.116;2024-03-22T00:53:55;35.36;31.35;54.64;;
43512;Laerm;34054;52.100;5.116;2024-03-22T00:54:26;33.90;31.63;37.24;;
43512;Laerm;34054;52.100;5.116;2024-03-22T00:54:58;34.47;31.42;48.98;;
43512;Laerm;34054;52.100;5.116;2024-03-22T00:55:30;33.61;31.14;36.30;;
43512;Laerm;34054;52.100;5.116;2024-03-22T00:56:01;33.62;31.25;37.38;;
43512;Laerm;34054;52.100;5.116;2024-03-22T00:56:33;34.82;31.41;50.78;;
43512;Laerm;34054;52.100;5.116;2024-03-22T00:57:04;33.99;31.40;39.54;;
43512;Laerm;34054;52.100;5.116;2024-03-22T00:57:37;33.91;31.24;47.77;;
43512;Laerm;34054;52.100;5.116;2024-03-22T00:58:08;34.61;31.55;47.49;;
43512;Laerm;34054;52.100;5.116;2024-03-22T00:58:40;34.16;31.44;48.74;;
43512;Laerm;34054;52.100;5.116;2024-03-22T00:59:11;34.10;31.66;41.68;;
43512;Laerm;34054;52.100;5.116;2024-03-22T00:59:43;34.33;31.82;42.32;;
43512;Laerm;34054;52.100;5.116;2024-03-22T01:00:16;33.97;31.44;37.49;;
43512;Laerm;34054;52.100;5.116;2024-03-22T01:00:47;33.87;31.35;37.46;;
43512;Laerm;34054;52.100;5.116;2024-03-22T01:01:20;33.98;31.10;43.75;;
43512;Laerm;34054;52.100;5.116;2024-03-22T01:01:51;34.50;31.64;51.12;;
43512;Laerm;34054;52.100;5.116;2024-03-22T01:02:23;34.56;31.65;46.06;;
43512;Laerm;34054;52.100;5.116;2024-03-22T01:02:54;34.64;31.35;52.14;;
43512;Laerm;34054;52.100;5.116;2024-03-22T01:03:26;33.94;31.14;36.33;;
43512;Laerm;34054;52.100;5.116;2024-03-22T01:03:57;34.09;31.49;37.32;;
43512;Laerm;34054;52.100;5.116;2024-03-22T01:04:30;33.90;31.26;37.19;;
43512;Laerm;34054;52.100;5.116;2024-03-22T01:05:02;34.06;31.55;37.29;;
43512;Laerm;34054;52.100;5.116;2024-03-22T01:05:33;33.85;31.20;36.67;;
43512;Laerm;34054;52.100;5.116;2024-03-22T01:06:05;33.86;31.31;36.77;;
43512;Laerm;34054;52.100;5.116;2024-03-22T01:06:38;33.85;31.19;36.22;;
43512;Laerm;34054;52.100;5.116;2024-03-22T01:07:11;33.87;31.26;36.84;;
43512;Laerm;34054;52.100;5.116;2024-03-22T01:07:43;34.14;31.19;44.63;;
43512;Laerm;34054;52.100;5.116;2024-03-22T01:08:15;34.24;31.28;45.33;;
43512;Laerm;34054;52.100;5.116;2024-03-22T01:08:47;34.09;31.34;36.37;;
43512;Laerm;34054;52.100;5.116;2024-03-22T01:09:18;34.04;31.33;36.25;;
43512;Laerm;34054;52.100;5.116;2024-03-22T01:09:50;34.12;31.65;38.88;;
43512;Laerm;34054;52.100;5.116;2024-03-22T01:10:22;34.04;31.44;39.41;;
43512;Laerm;34054;52.100;5.116;2024-03-22T01:10:55;33.99;31.26;37.84;;
43512;Laerm;34054;52.100;5.116;2024-03-22T01:11:26;34.08;31.55;37.24;;
43512;Laerm;34054;52.100;5.116;2024-03-22T01:11:58;34.12;31.46;37.74;;
43512;Laerm;34054;52.100;5.116;2024-03-22T01:12:29;34.10;31.16;36.94;;
43512;Laerm;34054;52.100;5.116;2024-03-22T01:13:02;34.56;31.20;46.09;;
43512;Laerm;34054;52.100;5.116;2024-03-22T01:13:33;34.23;31.62;37.85;;
43512;Laerm;34054;52.100;5.116;2024-03-22T01:14:06;35.58;31.22;51.84;;
43512;Laerm;34054;52.100;5.116;2024-03-22T01:14:38;34.46;31.57;44.30;;
43512;Laerm;34054;52.100;5.116;2024-03-22T01:15:09;34.40;31.73;39.97;;
43512;Laerm;34054;52.100;5.116;2024-03-22T01:15:41;34.44;31.60;39.59;;
43512;Laerm;34054;52.100;5.116;2024-03-22T01:16:12;34.50;31.44;39.60;;
43512;Laerm;34054;52.100;5.116;2024-03-22T01:16:44;34.53;31.70;41.61;;
43512;Laerm;34054;52.100;5.116;2024-03-22T01:17:15;34.44;31.49;37.66;;
43512;Laerm;34054;52.100;5.116;2024-03-22T01:17:48;34.45;31.74;38.09;;
43512;Laerm;34054;52.100;5.116;2024-03-22T01:18:19;34.36;31.72;37.43;;
43512;Laerm;34054;52.100;5.116;2024-03-22T01:18:51;34.38;31.55;37.51;;
43512;Laerm;34054;52.100;5.116;2024-03-22T01:19:22;34.42;31.64;37.25;;
43512;Laerm;34054;52.100;5.116;2024-03-22T01:19:54;34.44;31.89;37.06;;
43512;Laerm;34054;52.100;5.116;2024-03-22T01:20:25;34.47;31.54;37.61;;
43512;Laerm;34054;52.100;5.116;2024-03-22T01:20:57;38.35;31.40;56.10;;
43512;Laerm;34054;52.100;5.116;2024-03-22T01:21:29;34.50;31.52;39.05;;
43512;Laerm;34054;52.100;5.116;2024-03-22T01:22:03;34.49;31.43;39.11;;
43512;Laerm;34054;52.100;5.116;2024-03-22T01:22:35;34.52;31.56;42.45;;
43512;Laerm;34054;52.100;5.116;2024-03-22T01:23:06;34.50;31.78;38.48;;
43512;Laerm;34054;52.100;5.116;2024-03-22T01:23:38;34.52;31.48;39.16;;
43512;Laerm;34054;52.100;5.116;2024-03-22T01:24:09;34.68;31.78;41.17;;
43512;Laerm;34054;52.100;5.116;2024-03-22T01:24:41;34.58;31.79;38.40;;
43512;Laerm;34054;52.100;5.116;2024-03-22T01:25:13;34.60;31.89;38.16;;
43512;Laerm;34054;52.100;5.116;2024-03-22T01:25:45;34.93;31.62;44.89;;
43512;Laerm;34054;52.100;5.116;2024-03-22T01:26:17;35.34;31.68;49.74;;
43512;Laerm;34054;52.100;5.116;2024-03-22T01:26:48;34.64;32.20;38.01;;
43512;Laerm;34054;52.100;5.116;2024-03-22T01:27:20;35.31;31.59;47.72;;
43512;Laerm;34054;52.100;5.116;2024-03-22T01:27:51;35.01;31.89;46.81;;
43512;Laerm;34054;52.100;5.116;2024-03-22T01:28:23;37.41;31.72;55.31;;
43512;Laerm;34054;52.100;5.116;2024-03-22T01:28:54;34.69;31.60;44.46;;
43512;Laerm;34054;52.100;5.116;2024-03-22T01:29:27;34.99;31.53;46.67;;
43512;Laerm;34054;52.100;5.116;2024-03-22T01:30:01;35.24;31.82;48.41;;
43512;Laerm;34054;52.100;5.116;2024-03-22T01:30:33;34.65;31.97;38.43;;
43512;Laerm;34054;52.100;5.116;2024-03-22T01:31:05;35.45;31.55;51.78;;
43512;Laerm;34054;52.100;5.116;2024-03-22T01:31:37;36.05;31.99;51.46;;
43512;Laerm;34054;52.100;5.116;2024-03-22T01:32:08;34.68;31.89;38.82;;
43512;Laerm;34054;52.100;5.116;2024-03-22T01:32:41;34.66;31.35;40.59;;
43512;Laerm;34054;52.100;5.116;2024-03-22T01:33:12;36.40;32.13;56.52;;
43512;Laerm;34054;52.100;5.116;2024-03-22T01:33:44;41.06;32.27;61.69;;
43512;Laerm;34054;52.100;5.116;2024-03-22T01:34:15;38.64;31.86;60.32;;
43512;Laerm;34054;52.100;5.116;2024-03-22T01:34:47;34.67;31.25;40.14;;
43512;Laerm;34054;52.100;5.116;2024-03-22T01:35:18;34.77;31.55;44.66;;
43512;Laerm;34054;52.100;5.116;2024-03-22T01:35:51;34.93;31.80;48.11;;
43512;Laerm;34054;52.100;5.116;2024-03-22T01:36:22;35.20;31.62;48.77;;
43512;Laerm;34054;52.100;5.116;2024-03-22T01:36:54;35.22;31.40;48.94;;
43512;Laerm;34054;52.100;5.116;2024-03-22T01:37:27;34.69;31.79;42.80;;
43512;Laerm;34054;52.100;5.116;2024-03-22T01:37:58;36.66;31.76;50.93;;
43512;Laerm;34054;52.100;5.116;2024-03-22T01:38:30;36.94;31.76;53.91;;
43512;Laerm;34054;52.100;5.116;2024-03-22T01:39:01;37.32;31.82;54.71;;
43512;Laerm;34054;52.100;5.116;2024-03-22T01:39:34;34.95;31.80;45.68;;
43512;Laerm;34054;52.100;5.116;2024-03-22T01:40:08;35.10;31.90;46.95;;
43512;Laerm;34054;52.100;5.116;2024-03-22T01:40:39;34.85;31.73;42.33;;
43512;Laerm;34054;52.100;5.116;2024-03-22T01:41:11;34.82;31.92;39.43;;
43512;Laerm;34054;52.100;5.116;2024-03-22T01:41:43;38.32;32.34;57.11;;
43512;Laerm;34054;52.100;5.116;2024-03-22T01:42:15;35.09;31.86;45.03;;
43512;Laerm;34054;52.100;5.116;2024-03-22T01:42:46;38.83;31.93;56.15;;
43512;Laerm;34054;52.100;5.116;2024-03-22T01:43:19;35.09;32.20;49.19;;
43512;Laerm;34054;52.100;5.116;2024-03-22T01:43:51;35.33;31.86;44.85;;
43512;Laerm;34054;52.100;5.116;2024-03-22T01:44:27;35.51;31.81;49.24;;
43512;Laerm;34054;52.100;5.116;2024-03-22T01:44:59;34.88;31.90;39.55;;
43512;Laerm;34054;52.100;5.116;2024-03-22T01:45:33;35.17;31.52;43.31;;
43512;Laerm;34054;52.100;5.116;2024-03-22T01:46:07;34.84;31.89;38.14;;
43512;Laerm;34054;52.100;5.116;2024-03-22T01:46:39;34.94;31.28;38.66;;
43512;Laerm;34054;52.100;5.116;2024-03-22T01:47:12;34.83;31.60;38.19;;
43512;Laerm;34054;52.100;5.116;2024-03-22T01:47:45;35.69;31.79;49.93;;
43512;Laerm;34054;52.100;5.116;2024-03-22T01:48:16;34.86;32.05;37.63;;
43512;Laerm;34054;52.100;5.116;2024-03-22T01:48:48;34.95;31.72;44.63;;
43512;Laerm;34054;52.100;5.116;2024-03-22T01:49:21;35.67;31.97;51.06;;
43512;Laerm;34054;52.100;5.116;2024-03-22T01:49:55;35.49;31.55;50.97;;
43512;Laerm;34054;52.100;5.116;2024-03-22T01:50:28;41.86;31.70;61.05;;
43512;Laerm;34054;52.100;5.116;2024-03-22T01:51:02;35.04;31.83;39.71;;
43512;Laerm;34054;52.100;5.116;2024-03-22T01:51:35;34.83;31.65;38.26;;
43512;Laerm;34054;52.100;5.116;2024-03-22T01:52:07;36.89;31.85;53.59;;
43512;Laerm;34054;52.100;5.116;2024-03-22T01:52:40;35.28;32.06;49.16;;
43512;Laerm;34054;52.100;5.116;2024-03-22T01:53:12;35.13;31.98;38.52;;
43512;Laerm;34054;52.100;5.116;2024-03-22T01:53:44;34.95;31.55;38.82;;
43512;Laerm;34054;52.100;5.116;2024-03-22T01:54:17;35.14;31.74;41.21;;
43512;Laerm;34054;52.100;5.116;2024-03-22T01:54:50;35.03;31.88;39.34;;
43512;Laerm;34054;52.100;5.116;2024-03-22T01:55:22;35.16;31.43;45.30;;
43512;Laerm;34054;52.100;5.116;2024-03-22T01:55:54;35.12;32.17;38.50;;
43512;Laerm;34054;52.100;5.116;2024-03-22T01:56:25;35.26;31.49;48.40;;
43512;Laerm;34054;52.100;5.116;2024-03-22T01:56:57;36.84;32.13;53.74;;
43512;Laerm;34054;52.100;5.116;2024-03-22T01:57:29;35.09;31.96;37.78;;
43512;Laerm;34054;52.100;5.116;2024-03-22T01:58:00;35.20;31.97;38.73;;
43512;Laerm;34054;52.100;5.116;2024-03-22T01:58:32;35.11;31.69;41.89;;
43512;Laerm;34054;52.100;5.116;2024-03-22T01:59:05;35.26;32.14;41.60;;
43512;Laerm;34054;52.100;5.116;2024-03-22T01:59:38;35.29;32.34;39.75;;
43512;Laerm;34054;52.100;5.116;2024-03-22T02:00:11;36.50;32.06;53.64;;
43512;Laerm;34054;52.100;5.116;2024-03-22T02:00:43;36.03;32.00;54.06;;
43512;Laerm;34054;52.100;5.116;2024-03-22T02:01:15;35.17;31.72;40.09;;
43512;Laerm;34054;52.100;5.116;2024-03-22T02:01:46;35.13;31.63;38.78;;
43512;Laerm;34054;52.100;5.116;2024-03-22T02:02:20;37.30;31.97;59.66;;
43512;Laerm;34054;52.100;5.116;2024-03-22T02:02:51;35.60;31.82;47.00;;
43512;Laerm;34054;52.100;5.116;2024-03-22T02:03:23;35.56;32.16;45.95;;
43512;Laerm;34054;52.100;5.116;2024-03-22T02:03:54;35.37;32.01;43.88;;
43512;Laerm;34054;52.100;5.116;2024-03-22T02:04:26;35.34;31.72;47.26;;
43512;Laerm;34054;52.100;5.116;2024-03-22T02:04:57;35.29;32.20;39.13;;
43512;Laerm;34054;52.100;5.116;2024-03-22T02:05:30;35.37;31.66;39.48;;
43512;Laerm;34054;52.100;5.116;2024-03-22T02:06:01;36.14;31.90;51.66;;
43512;Laerm;34054;52.100;5.116;2024-03-22T02:06:34;35.32;31.88;38.73;;
43512;Laerm;34054;52.100;5.116;2024-03-22T02:07:06;35.48;32.02;44.53;;
43512;Laerm;34054;52.100;5.116;2024-03-22T02:07:37;35.34;31.16;40.63;;
43512;Laerm;34054;52.100;5.116;2024-03-22T02:08:10;36.94;32.32;51.81;;
43512;Laerm;34054;52.100;5.116;2024-03-22T02:08:42;35.47;32.25;40.41;;
43512;Laerm;34054;52.100;5.116;2024-03-22T02:09:15;35.96;31.81;51.18;;
43512;Laerm;34054;52.100;5.116;2024-03-22T02:09:48;36.21;31.85;50.11;;
43512;Laerm;34054;52.100;5.116;2024-03-22T02:10:20;40.61;32.02;60.07;;
43512;Laerm;34054;52.100;5.116;2024-03-22T02:10:52;38.25;32.83;58.62;;
43512;Laerm;34054;52.100;5.116;2024-03-22T02:11:25;37.04;32.57;49.72;;
43512;Laerm;34054;52.100;5.116;2024-03-22T02:11:57;35.84;32.71;48.86;;
43512;Laerm;34054;52.100;5.116;2024-03-22T02:12:28;44.58;32.30;64.78;;
43512;Laerm;34054;52.100;5.116;2024-03-22T02:13:00;39.99;31.89;57.64;;
43512;Laerm;34054;52.100;5.116;2024-03-22T02:13:33;36.40;31.68;51.97;;
43512;Laerm;34054;52.100;5.116;2024-03-22T02:14:04;37.14;31.68;55.61;;
43512;Laerm;34054;52.100;5.116;2024-03-22T02:14:35;36.08;32.03;50.89;;
43512;Laerm;34054;52.100;5.116;2024-03-22T02:15:08;38.76;32.11;62.30;;
43512;Laerm;34054;52.100;5.116;2024-03-22T02:15:40;41.07;32.60;59.16;;
43512;Laerm;34054;52.100;5.116;2024-03-22T02:16:12;42.51;32.34;62.52;;
43512;Laerm;34054;52.100;5.116;2024-03-22T02:16:44;35.59;32.41;45.94;;
43512;Laerm;34054;52.100;5.116;2024-03-22T02:17:17;40.79;32.54;58.87;;
43512;Laerm;34054;52.100;5.116;2024-03-22T02:17:48;35.96;32.13;48.69;;
43512;Laerm;34054;52.100;5.116;2024-03-22T02:18:20;36.12;32.20;51.32;;
43512;Laerm;34054;52.100;5.116;2024-03-22T02:18:52;35.63;32.33;38.93;;
43512;Laerm;34054;52.100;5.116;2024-03-22T02:19:23;35.67;32.26;41.73;;
43512;Laerm;34054;52.100;5.116;2024-03-22T02:19:55;45.37;32.19;61.74;;
43512;Laerm;34054;52.100;5.116;2024-03-22T02:20:26;35.77;32.75;39.90;;
43512;Laerm;34054;52.100;5.116;2024-03-22T02:20:58;37.22;32.54;57.08;;
43512;Laerm;34054;52.100;5.116;2024-03-22T02:21:30;36.32;32.26;53.43;;
43512;Laerm;34054;52.100;5.116;2024-03-22T02:22:02;35.85;32.05;45.57;;
43512;Laerm;34054;52.100;5.116;2024-03-22T02:22:33;37.60;32.06;58.21;;
43512;Laerm;34054;52.100;5.116;2024-03-22T02:23:05;35.86;32.37;41.98;;
43512;Laerm;34054;52.100;5.116;2024-03-22T02:23:39;35.95;32.13;44.57;;
43512;Laerm;34054;52.100;5.116;2024-03-22T02:24:11;39.20;32.51;55.46;;
43512;Laerm;34054;52.100;5.116;2024-03-22T02:24:43;39.44;31.92;55.71;;
43512;Laerm;34054;52.100;5.116;2024-03-22T02:25:15;35.70;32.20;40.12;;
43512;Laerm;34054;52.100;5.116;2024-03-22T02:25:47;35.85;31.85;39.98;;
43512;Laerm;34054;52.100;5.116;2024-03-22T02:26:18;37.14;32.26;52.85;;
43512;Laerm;34054;52.100;5.116;2024-03-22T02:26:50;35.83;32.16;45.61;;
43512;Laerm;34054;52.100;5.116;2024-03-22T02:27:21;36.70;32.18;54.09;;
43512;Laerm;34054;52.100;5.116;2024-03-22T02:27:53;35.55;32.13;39.79;;
43512;Laerm;34054;52.100;5.116;2024-03-22T02:28:26;35.85;32.22;45.49;;
43512;Laerm;34054;52.100;5.116;2024-03-22T02:28:57;35.60;32.05;39.72;;
43512;Laerm;34054;52.100;5.116;2024-03-22T02:29:29;35.93;32.38;43.60;;
43512;Laerm;34054;52.100;5.116;2024-03-22T02:30:01;36.05;31.98;44.81;;
43512;Laerm;34054;52.100;5.116;2024-03-22T02:30:33;35.76;31.90;40.33;;
43512;Laerm;34054;52.100;5.116;2024-03-22T02:31:05;44.06;32.21;66.68;;
43512;Laerm;34054;52.100;5.116;2024-03-22T02:31:36;37.15;32.46;54.56;;
43512;Laerm;34054;52.100;5.116;2024-03-22T02:32:09;36.93;32.87;51.46;;
43512;Laerm;34054;52.100;5.116;2024-03-22T02:32:41;35.76;32.31;40.57;;
43512;Laerm;34054;52.100;5.116;2024-03-22T02:33:13;36.22;32.36;49.64;;
43512;Laerm;34054;52.100;5.116;2024-03-22T02:33:44;35.89;31.81;45.85;;
43512;Laerm;34054;52.100;5.116;2024-03-22T02:34:16;35.60;32.25;39.55;;
43512;Laerm;34054;52.100;5.116;2024-03-22T02:34:48;35.97;32.15;47.69;;
43512;Laerm;34054;52.100;5.116;2024-03-22T02:35:19;35.82;31.94;45.98;;
43512;Laerm;34054;52.100;5.116;2024-03-22T02:35:52;35.84;32.29;47.05;;
43512;Laerm;34054;52.100;5.116;2024-03-22T02:36:24;36.50;31.80;50.66;;
43512;Laerm;34054;52.100;5.116;2024-03-22T02:36:55;36.09;32.25;50.11;;
43512;Laerm;34054;52.100;5.116;2024-03-22T02:37:27;35.61;32.28;39.70;;
43512;Laerm;34054;52.100;5.116;2024-03-22T02:37:59;35.55;31.99;40.27;;
43512;Laerm;34054;52.100;5.116;2024-03-22T02:38:31;35.67;32.30;40.15;;
43512;Laerm;34054;52.100;5.116;2024-03-22T02:39:04;35.63;32.11;39.50;;
43512;Laerm;34054;52.100;5.116;2024-03-22T02:39:36;36.00;32.29;50.21;;
43512;Laerm;34054;52.100;5.116;2024-03-22T02:40:09;35.64;31.94;39.56;;
43512;Laerm;34054;52.100;5.116;2024-03-22T02:40:42;36.07;32.31;45.57;;
43512;Laerm;34054;52.100;5.116;2024-03-22T02:41:14;37.25;32.53;54.44;;
43512;Laerm;34054;52.100;5.116;2024-03-22T02:41:46;38.56;32.39;55.48;;
43512;Laerm;34054;52.100;5.116;2024-03-22T02:42:18;37.23;32.20;51.49;;
43512;Laerm;34054;52.100;5.116;2024-03-22T02:42:50;36.79;32.26;53.88;;
43512;Laerm;34054;52.100;5.116;2024-03-22T02:43:21;36.24;32.43;49.99;;
43512;Laerm;34054;52.100;5.116;2024-03-22T02:43:53;38.53;32.11;58.87;;
43512;Laerm;34054;52.100;5.116;2024-03-22T02:44:24;38.85;31.85;56.38;;
43512;Laerm;34054;52.100;5.116;2024-03-22T02:44:56;36.09;32.23;47.66;;
43512;Laerm;34054;52.100;5.116;2024-03-22T02:45:30;35.84;32.02;40.99;;
43512;Laerm;34054;52.100;5.116;2024-03-22T02:46:01;36.00;32.00;49.48;;
43512;Laerm;34054;52.100;5.116;2024-03-22T02:46:33;36.52;32.26;41.70;;
43512;Laerm;34054;52.100;5.116;2024-03-22T02:47:05;36.05;32.10;40.15;;
43512;Laerm;34054;52.100;5.116;2024-03-22T02:47:37;37.33;32.08;53.06;;
43512;Laerm;34054;52.100;5.116;2024-03-22T02:48:08;35.89;32.29;43.55;;
43512;Laerm;34054;52.100;5.116;2024-03-22T02:48:41;35.72;31.66;40.28;;
43512;Laerm;34054;52.100;5.116;2024-03-22T02:49:12;35.66;31.75;40.44;;
43512;Laerm;34054;52.100;5.116;2024-03-22T02:49:44;35.73;32.23;40.64;;
43512;Laerm;34054;52.100;5.116;2024-03-22T02:50:16;38.63;32.02;57.58;;
43512;Laerm;34054;52.100;5.116;2024-03-22T02:50:47;38.26;32.19;54.75;;
43512;Laerm;34054;52.100;5.116;2024-03-22T02:51:19;35.92;32.38;44.85;;
43512;Laerm;34054;52.100;5.116;2024-03-22T02:51:52;35.73;32.45;42.56;;
43512;Laerm;34054;52.100;5.116;2024-03-22T02:52:23;36.11;32.10;48.00;;
43512;Laerm;34054;52.100;5.116;2024-03-22T02:52:55;35.84;32.45;46.75;;
43512;Laerm;34054;52.100;5.116;2024-03-22T02:53:26;36.59;32.33;51.43;;
43512;Laerm;34054;52.100;5.116;2024-03-22T02:53:58;35.94;31.92;40.58;;
43512;Laerm;34054;52.100;5.116;2024-03-22T02:54:31;37.69;32.14;53.16;;
43512;Laerm;34054;52.100;5.116;2024-03-22T02:55:04;35.81;32.38;39.47;;
43512;Laerm;34054;52.100;5.116;2024-03-22T02:55:37;35.72;31.94;41.36;;
43512;Laerm;34054;52.100;5.116;2024-03-22T02:56:09;36.16;32.30;46.77;;
43512;Laerm;34054;52.100;5.116;2024-03-22T02:56:40;36.49;32.39;53.28;;
43512;Laerm;34054;52.100;5.116;2024-03-22T02:57:12;35.78;31.80;40.70;;
43512;Laerm;34054;52.100;5.116;2024-03-22T02:57:43;38.02;32.04;61.38;;
43512;Laerm;34054;52.100;5.116;2024-03-22T02:58:19;36.02;32.47;41.83;;
43512;Laerm;34054;52.100;5.116;2024-03-22T02:58:52;40.33;32.91;58.89;;